Gramling, South Carolina
Current Conditions -  °F | °C
As of 12:53 PM on Saturday 25 Oct 2014 (Local Time) from KGSP Reporting Station
Clear Clear  
Wind Chill: 70°   Ceiling: Unl
Heat Index: 70°   Visibility: 10mi
Dew Point: 33°   Wind: 0mph
Humidity: 26%   Direction: NA
Pressure: 30.02"   Gusts: NA
Location:  35.08°N, 82.13°W
Report Text: KGSP 251653Z 00000KT 10SM CLR 21/01 A3002 RMK AO2 SLP160 T02110006
Loading
Personal Weather Stations






























Interactive Weather Map
Tropical Storm Tracking
New forecast layout! Learn more

10-Day Weather Forecast

Advertisements
Track Severe Weather on mobile